< Cyclone 199308 1994 Season Cyclone 199402 >
Cyclone 199401 (NAOMI)
General InformationTrack Information on Google MapsDetailed Wind InformationList of All Images || ResourceGoogle EarthGE AnimationAtom FeedGeoJSON
Detalied Best Track (Time Zone = UTC)
Year Month Day Hour Lat. Long. Pressure (hPa) Wind (kt) Class Image Chart
1993 12 15 00 -12.0 120.7 1005 19 2 Image --
1993 12 15 03 -12.2 120.9 1004 21 2 Image --
1993 12 15 06 -12.4 121.2 1002 23 2 Image --
1993 12 15 09 -12.6 121.5 1002 23 2 Image --
1993 12 15 12 -13.1 121.7 1000 27 2 Image --
1993 12 15 15 -13.6 121.8 998 29 2 Image --
1993 12 15 18 -14.2 122.0 998 29 2 Image --
1993 12 15 21 -14.8 122.0 998 29 2 Image --
1993 12 16 00 -15.3 121.9 995 35 3 Image --
1993 12 16 03 -15.8 121.8 995 35 3 Image --
1993 12 16 06 -16.2 121.5 990 41 3 Image --
1993 12 16 09 -16.6 121.4 985 47 3 Image --
1993 12 16 12 -16.9 121.3 980 54 4 Image --
1993 12 16 15 -17.3 121.2 975 60 4 Image --
1993 12 16 18 -17.6 121.2 970 66 5 Image --
1993 12 16 21 -17.8 121.3 965 70 5 Image --
1993 12 17 00 -18.3 121.5 960 76 5 Image --
1993 12 17 03 -18.8 121.6 960 76 5 Image --
1993 12 17 06 -19.4 121.6 965 70 5 Image --
1993 12 17 09 -19.8 121.6 975 60 4 Image --
1993 12 17 12 -20.3 121.8 980 54 4 Image --
1993 12 17 15 -20.7 122.0 980 54 4 Image --
1993 12 17 18 -21.2 122.2 985 47 3 Image --
1993 12 17 21 -21.6 122.2 985 47 3 Image --
1993 12 18 00 -22.2 122.2 990 41 3 Image --
1993 12 18 03 -22.8 122.2 995 35 3 Image --
1993 12 18 06 -23.4 122.2 995 35 3 Image --
1993 12 18 09 -24.0 122.2 1000 27 2 Image --
< Cyclone 199308 1994 Season Cyclone 199402 >

Help